Goodluck, Kentucky
Current Conditions -  °F | °C
As of 2:35 AM on Friday 21 Nov 2014 (Local Time) from KGLW Reporting Station
Clear Clear  
Wind Chill: 21°   Ceiling: Unl
Heat Index: 21°   Visibility: 10mi
Dew Point: 20°   Wind: 0mph
Humidity: 99%   Direction: NA
Pressure: 30.38"   Gusts: NA
Location:  36.9886°N, 85.5829°W
Report Text: KGLW 210835Z AUTO 00000KT 10SM CLR M06/M06 A3038 RMK AO2 T10631064
Loading
Personal Weather Stations






























Interactive Weather Map New forecast layout! Learn more

10-Day Weather Forecast

Advertisements
Track Severe Weather on mobile